sensor_id;sensor_type;location;lat;lon;timestamp;pressure;altitude;pressure_sealevel;temperature;humidity
19208;BME280;9737;59.466;18.036;2022-08-21T00:00:43;100273.75;;;15.86;84.41
19208;BME280;9737;59.466;18.036;2022-08-21T00:03:12;100267.56;;;15.86;84.25
19208;BME280;9737;59.466;18.036;2022-08-21T00:05:46;100263.56;;;15.90;84.29
19208;BME280;9737;59.466;18.036;2022-08-21T00:08:16;100277.84;;;15.90;84.30
19208;BME280;9737;59.466;18.036;2022-08-21T00:10:45;100305.38;;;16.10;84.46
19208;BME280;9737;59.466;18.036;2022-08-21T00:13:16;100267.25;;;15.89;84.50
19208;BME280;9737;59.466;18.036;2022-08-21T00:15:45;100271.63;;;15.90;84.56
19208;BME280;9737;59.466;18.036;2022-08-21T00:18:14;100232.22;;;15.72;84.67
19208;BME280;9737;59.466;18.036;2022-08-21T00:20:43;100291.59;;;16.05;84.51
19208;BME280;9737;59.466;18.036;2022-08-21T00:23:13;100263.31;;;15.93;84.58
19208;BME280;9737;59.466;18.036;2022-08-21T00:25:42;100276.78;;;16.01;84.63
19208;BME280;9737;59.466;18.036;2022-08-21T00:28:14;100266.25;;;15.90;84.68
19208;BME280;9737;59.466;18.036;2022-08-21T00:30:44;100223.72;;;15.77;84.56
19208;BME280;9737;59.466;18.036;2022-08-21T00:33:13;100217.22;;;15.79;84.68
19208;BME280;9737;59.466;18.036;2022-08-21T00:35:42;100227.19;;;15.69;84.57
19208;BME280;9737;59.466;18.036;2022-08-21T00:38:16;100198.00;;;15.66;84.72
19208;BME280;9737;59.466;18.036;2022-08-21T00:40:46;100202.50;;;15.84;84.77
19208;BME280;9737;59.466;18.036;2022-08-21T00:43:22;100166.50;;;15.68;84.49
19208;BME280;9737;59.466;18.036;2022-08-21T00:45:51;100136.22;;;15.58;84.73
19208;BME280;9737;59.466;18.036;2022-08-21T00:48:21;100095.16;;;15.40;84.63
19208;BME280;9737;59.466;18.036;2022-08-21T00:50:52;100090.34;;;15.43;84.85
19208;BME280;9737;59.466;18.036;2022-08-21T00:53:23;100078.31;;;15.47;84.67
19208;BME280;9737;59.466;18.036;2022-08-21T00:55:53;100090.94;;;15.55;84.60
19208;BME280;9737;59.466;18.036;2022-08-21T00:58:26;100028.16;;;15.22;84.80
19208;BME280;9737;59.466;18.036;2022-08-21T01:00:55;100046.53;;;15.35;84.72
19208;BME280;9737;59.466;18.036;2022-08-21T01:03:25;100029.06;;;15.31;84.83
19208;BME280;9737;59.466;18.036;2022-08-21T01:05:53;100044.47;;;15.46;84.96
19208;BME280;9737;59.466;18.036;2022-08-21T01:08:22;100026.19;;;15.42;84.68
19208;BME280;9737;59.466;18.036;2022-08-21T01:10:52;100028.78;;;15.34;84.83
19208;BME280;9737;59.466;18.036;2022-08-21T01:13:21;100016.75;;;15.38;84.93
19208;BME280;9737;59.466;18.036;2022-08-21T01:15:54;99986.81;;;15.25;84.75
19208;BME280;9737;59.466;18.036;2022-08-21T01:18:23;100019.28;;;15.39;85.14
19208;BME280;9737;59.466;18.036;2022-08-21T01:21:04;100009.03;;;15.35;84.99
19208;BME280;9737;59.466;18.036;2022-08-21T01:23:42;99975.88;;;15.18;84.70
19208;BME280;9737;59.466;18.036;2022-08-21T01:26:11;99990.72;;;15.30;84.86
19208;BME280;9737;59.466;18.036;2022-08-21T01:28:46;99968.59;;;15.28;84.96
19208;BME280;9737;59.466;18.036;2022-08-21T01:31:20;99948.94;;;15.19;84.86
19208;BME280;9737;59.466;18.036;2022-08-21T01:33:55;99901.66;;;14.93;84.78
19208;BME280;9737;59.466;18.036;2022-08-21T01:36:36;99904.66;;;15.07;84.79
19208;BME280;9737;59.466;18.036;2022-08-21T01:41:34;99854.88;;;14.79;85.09
19208;BME280;9737;59.466;18.036;2022-08-21T01:44:11;99849.13;;;14.74;84.94
19208;BME280;9737;59.466;18.036;2022-08-21T01:46:44;99815.72;;;14.60;84.95
19208;BME280;9737;59.466;18.036;2022-08-21T01:49:12;99885.50;;;15.02;84.92
19208;BME280;9737;59.466;18.036;2022-08-21T01:51:53;99919.94;;;15.15;84.91
19208;BME280;9737;59.466;18.036;2022-08-21T01:54:39;99872.16;;;14.84;84.92
19208;BME280;9737;59.466;18.036;2022-08-21T01:57:14;99895.16;;;14.95;84.97
19208;BME280;9737;59.466;18.036;2022-08-21T01:59:43;99933.34;;;15.15;84.94
19208;BME280;9737;59.466;18.036;2022-08-21T02:02:11;99909.59;;;15.02;85.10
19208;BME280;9737;59.466;18.036;2022-08-21T02:04:40;99926.63;;;15.11;85.13
19208;BME280;9737;59.466;18.036;2022-08-21T02:07:15;99862.50;;;14.74;84.81
19208;BME280;9737;59.466;18.036;2022-08-21T02:09:43;99866.41;;;14.79;84.77
19208;BME280;9737;59.466;18.036;2022-08-21T02:12:12;99894.09;;;14.88;84.87
19208;BME280;9737;59.466;18.036;2022-08-21T02:14:40;99877.50;;;14.84;85.15
19208;BME280;9737;59.466;18.036;2022-08-21T02:17:18;99912.00;;;15.05;85.19
19208;BME280;9737;59.466;18.036;2022-08-21T02:19:53;99926.84;;;15.17;85.05
19208;BME280;9737;59.466;18.036;2022-08-21T02:22:23;99876.66;;;14.84;85.10
19208;BME280;9737;59.466;18.036;2022-08-21T02:25:12;99835.13;;;14.62;85.05
19208;BME280;9737;59.466;18.036;2022-08-21T02:27:45;99895.69;;;14.99;84.96
19208;BME280;9737;59.466;18.036;2022-08-21T02:30:16;99901.19;;;14.97;85.08
19208;BME280;9737;59.466;18.036;2022-08-21T02:32:52;99921.03;;;15.04;85.27
19208;BME280;9737;59.466;18.036;2022-08-21T02:35:21;99847.91;;;14.68;84.98
19208;BME280;9737;59.466;18.036;2022-08-21T02:37:53;99845.06;;;14.70;85.35
19208;BME280;9737;59.466;18.036;2022-08-21T02:40:24;99874.13;;;14.82;85.22
19208;BME280;9737;59.466;18.036;2022-08-21T02:42:56;99826.41;;;14.60;85.36
19208;BME280;9737;59.466;18.036;2022-08-21T02:45:25;99894.00;;;14.98;85.16
19208;BME280;9737;59.466;18.036;2022-08-21T02:47:56;99844.91;;;14.71;85.11
19208;BME280;9737;59.466;18.036;2022-08-21T02:50:31;99856.56;;;14.80;85.37
19208;BME280;9737;59.466;18.036;2022-08-21T02:53:12;99879.78;;;14.97;85.38
19208;BME280;9737;59.466;18.036;2022-08-21T02:55:44;99870.91;;;14.97;85.40
19208;BME280;9737;59.466;18.036;2022-08-21T02:58:16;99900.13;;;15.08;85.33
19208;BME280;9737;59.466;18.036;2022-08-21T03:00:45;99870.38;;;14.93;85.20
19208;BME280;9737;59.466;18.036;2022-08-21T03:03:13;99812.03;;;14.61;85.28
19208;BME280;9737;59.466;18.036;2022-08-21T03:05:43;99846.16;;;14.77;85.23
19208;BME280;9737;59.466;18.036;2022-08-21T03:08:16;99900.13;;;15.08;85.41
19208;BME280;9737;59.466;18.036;2022-08-21T03:10:48;99859.44;;;14.86;85.29
19208;BME280;9737;59.466;18.036;2022-08-21T03:13:18;99881.47;;;14.98;85.07
19208;BME280;9737;59.466;18.036;2022-08-21T03:15:48;99808.16;;;14.55;85.20
19208;BME280;9737;59.466;18.036;2022-08-21T03:18:17;99899.31;;;15.07;85.22
19208;BME280;9737;59.466;18.036;2022-08-21T03:20:46;99889.75;;;15.05;85.71
19208;BME280;9737;59.466;18.036;2022-08-21T03:23:17;99896.78;;;15.06;85.57
19208;BME280;9737;59.466;18.036;2022-08-21T03:25:48;99809.31;;;14.53;85.51
19208;BME280;9737;59.466;18.036;2022-08-21T03:28:22;99870.00;;;14.88;85.63
19208;BME280;9737;59.466;18.036;2022-08-21T03:30:51;99918.41;;;15.12;85.50
19208;BME280;9737;59.466;18.036;2022-08-21T03:33:29;99833.91;;;14.56;85.47
19208;BME280;9737;59.466;18.036;2022-08-21T03:36:00;99903.03;;;14.97;85.35
19208;BME280;9737;59.466;18.036;2022-08-21T03:38:31;99869.09;;;14.79;85.40
19208;BME280;9737;59.466;18.036;2022-08-21T03:41:01;99859.81;;;14.74;85.41
19208;BME280;9737;59.466;18.036;2022-08-21T03:43:42;99889.22;;;14.83;85.38
19208;BME280;9737;59.466;18.036;2022-08-21T03:46:13;99928.50;;;15.01;85.61
19208;BME280;9737;59.466;18.036;2022-08-21T03:48:42;99884.75;;;14.74;85.22
19208;BME280;9737;59.466;18.036;2022-08-21T03:51:10;99971.53;;;15.17;85.57
19208;BME280;9737;59.466;18.036;2022-08-21T03:53:40;100004.56;;;15.26;85.50
19208;BME280;9737;59.466;18.036;2022-08-21T03:56:14;99973.97;;;15.10;85.77
19208;BME280;9737;59.466;18.036;2022-08-21T03:58:44;100009.41;;;15.22;85.70
19208;BME280;9737;59.466;18.036;2022-08-21T04:01:13;100040.88;;;15.38;85.56
19208;BME280;9737;59.466;18.036;2022-08-21T04:03:41;99976.16;;;14.97;85.66
19208;BME280;9737;59.466;18.036;2022-08-21T04:06:10;100006.72;;;15.04;85.50
19208;BME280;9737;59.466;18.036;2022-08-21T04:08:43;100067.66;;;15.38;85.81
19208;BME280;9737;59.466;18.036;2022-08-21T04:11:14;100081.06;;;15.38;85.55
19208;BME280;9737;59.466;18.036;2022-08-21T04:13:43;100068.09;;;15.15;85.65
19208;BME280;9737;59.466;18.036;2022-08-21T04:16:11;100084.63;;;15.29;85.82
19208;BME280;9737;59.466;18.036;2022-08-21T04:18:39;100144.97;;;15.60;85.71
19208;BME280;9737;59.466;18.036;2022-08-21T04:21:10;100046.47;;;14.99;85.33
19208;BME280;9737;59.466;18.036;2022-08-21T04:23:39;100134.06;;;15.44;85.63
19208;BME280;9737;59.466;18.036;2022-08-21T04:26:09;100151.34;;;15.49;85.78
19208;BME280;9737;59.466;18.036;2022-08-21T04:28:37;100172.34;;;15.54;85.60
19208;BME280;9737;59.466;18.036;2022-08-21T04:31:06;100151.72;;;15.37;85.75
19208;BME280;9737;59.466;18.036;2022-08-21T04:33:34;100227.94;;;15.79;85.66
19208;BME280;9737;59.466;18.036;2022-08-21T04:36:04;100236.16;;;15.78;85.81
19208;BME280;9737;59.466;18.036;2022-08-21T04:38:33;100211.84;;;15.62;85.67
19208;BME280;9737;59.466;18.036;2022-08-21T04:41:04;100178.53;;;15.37;85.82
19208;BME280;9737;59.466;18.036;2022-08-21T04:43:35;100229.16;;;15.67;85.72
19208;BME280;9737;59.466;18.036;2022-08-21T04:46:03;100252.00;;;15.71;85.54
19208;BME280;9737;59.466;18.036;2022-08-21T04:48:32;100248.38;;;15.63;85.59
19208;BME280;9737;59.466;18.036;2022-08-21T04:51:05;100246.69;;;15.62;85.84
19208;BME280;9737;59.466;18.036;2022-08-21T04:53:37;100292.28;;;15.79;85.66
19208;BME280;9737;59.466;18.036;2022-08-21T04:56:09;100301.34;;;15.78;85.85
19208;BME280;9737;59.466;18.036;2022-08-21T04:58:54;100366.25;;;16.09;85.80
19208;BME280;9737;59.466;18.036;2022-08-21T05:01:27;100302.53;;;15.66;85.81
19208;BME280;9737;59.466;18.036;2022-08-21T05:03:59;100350.13;;;15.92;85.66
19208;BME280;9737;59.466;18.036;2022-08-21T05:06:28;100353.22;;;15.87;85.89
19208;BME280;9737;59.466;18.036;2022-08-21T05:08:58;100352.69;;;15.84;85.72
19208;BME280;9737;59.466;18.036;2022-08-21T05:11:29;100341.47;;;15.70;85.65
19208;BME280;9737;59.466;18.036;2022-08-21T05:13:59;100389.06;;;15.96;85.78
19208;BME280;9737;59.466;18.036;2022-08-21T05:16:27;100460.22;;;16.27;85.59
19208;BME280;9737;59.466;18.036;2022-08-21T05:19:03;100382.88;;;15.86;85.85
19208;BME280;9737;59.466;18.036;2022-08-21T05:21:32;100409.13;;;15.92;85.79
19208;BME280;9737;59.466;18.036;2022-08-21T05:24:00;100409.38;;;15.89;85.90
19208;BME280;9737;59.466;18.036;2022-08-21T05:26:28;100478.84;;;16.29;85.80
19208;BME280;9737;59.466;18.036;2022-08-21T05:28:59;100396.72;;;15.81;85.72
19208;BME280;9737;59.466;18.036;2022-08-21T05:31:28;100427.69;;;16.03;85.87
19208;BME280;9737;59.466;18.036;2022-08-21T05:33:56;100463.19;;;16.24;85.77
19208;BME280;9737;59.466;18.036;2022-08-21T05:36:28;100414.19;;;15.95;85.85
19208;BME280;9737;59.466;18.036;2022-08-21T05:38:57;100416.75;;;15.87;85.91
19208;BME280;9737;59.466;18.036;2022-08-21T05:41:25;100474.38;;;16.20;85.93
19208;BME280;9737;59.466;18.036;2022-08-21T05:43:54;100498.94;;;16.25;85.84
19208;BME280;9737;59.466;18.036;2022-08-21T05:46:24;100546.97;;;16.46;85.80
19208;BME280;9737;59.466;18.036;2022-08-21T05:48:52;100552.09;;;16.49;86.03
19208;BME280;9737;59.466;18.036;2022-08-21T05:51:21;100597.81;;;16.57;85.95
19208;BME280;9737;59.466;18.036;2022-08-21T05:53:49;100565.28;;;16.32;85.86
19208;BME280;9737;59.466;18.036;2022-08-21T05:56:17;100603.78;;;16.51;85.81
19208;BME280;9737;59.466;18.036;2022-08-21T05:58:49;100610.31;;;16.38;85.67
19208;BME280;9737;59.466;18.036;2022-08-21T06:01:17;100716.22;;;16.83;85.99
19208;BME280;9737;59.466;18.036;2022-08-21T06:03:47;100717.91;;;16.84;85.78
19208;BME280;9737;59.466;18.036;2022-08-21T06:06:17;100702.13;;;16.52;85.72
19208;BME280;9737;59.466;18.036;2022-08-21T06:08:45;100750.97;;;16.84;85.97
19208;BME280;9737;59.466;18.036;2022-08-21T06:11:13;100798.56;;;17.01;85.93
19208;BME280;9737;59.466;18.036;2022-08-21T06:13:41;100774.91;;;16.68;85.85
19208;BME280;9737;59.466;18.036;2022-08-21T06:16:12;100784.66;;;16.69;85.80
19208;BME280;9737;59.466;18.036;2022-08-21T06:18:43;100869.84;;;17.06;85.76
19208;BME280;9737;59.466;18.036;2022-08-21T06:21:13;100902.81;;;17.08;85.86
19208;BME280;9737;59.466;18.036;2022-08-21T06:23:42;100927.72;;;17.10;85.76
19208;BME280;9737;59.466;18.036;2022-08-21T06:26:14;100966.03;;;17.21;85.74
19208;BME280;9737;59.466;18.036;2022-08-21T06:28:42;101076.78;;;17.63;85.83
19208;BME280;9737;59.466;18.036;2022-08-21T06:31:13;101086.59;;;17.64;85.70
19208;BME280;9737;59.466;18.036;2022-08-21T06:33:42;101092.38;;;17.60;85.84
19208;BME280;9737;59.466;18.036;2022-08-21T06:36:16;101030.09;;;17.26;85.80
19208;BME280;9737;59.466;18.036;2022-08-21T06:38:44;101094.66;;;17.45;85.65
19208;BME280;9737;59.466;18.036;2022-08-21T06:41:23;101120.69;;;17.54;85.65
19208;BME280;9737;59.466;18.036;2022-08-21T06:43:53;101149.69;;;17.60;85.61
19208;BME280;9737;59.466;18.036;2022-08-21T06:46:22;101113.75;;;17.42;85.65
19208;BME280;9737;59.466;18.036;2022-08-21T06:48:51;101192.38;;;17.75;85.73
19208;BME280;9737;59.466;18.036;2022-08-21T06:51:27;101234.31;;;17.97;85.83
19208;BME280;9737;59.466;18.036;2022-08-21T06:53:57;101201.69;;;17.90;85.70
19208;BME280;9737;59.466;18.036;2022-08-21T06:56:33;101176.22;;;17.84;85.67
19208;BME280;9737;59.466;18.036;2022-08-21T06:59:05;101105.97;;;17.49;85.85
19208;BME280;9737;59.466;18.036;2022-08-21T07:01:33;101092.06;;;17.34;85.76
19208;BME280;9737;59.466;18.036;2022-08-21T07:04:03;101172.69;;;17.84;85.65
19208;BME280;9737;59.466;18.036;2022-08-21T07:06:33;101221.53;;;17.89;85.69
19208;BME280;9737;59.466;18.036;2022-08-21T07:09:02;101212.19;;;17.74;85.63
19208;BME280;9737;59.466;18.036;2022-08-21T07:11:39;101298.34;;;17.93;85.65
19208;BME280;9737;59.466;18.036;2022-08-21T07:14:13;101306.25;;;17.94;85.50
19208;BME280;9737;59.466;18.036;2022-08-21T07:16:46;101316.28;;;17.92;85.67
19208;BME280;9737;59.466;18.036;2022-08-21T07:19:15;101343.09;;;18.04;85.72
19208;BME280;9737;59.466;18.036;2022-08-21T07:22:05;101339.66;;;17.92;85.44
19208;BME280;9737;59.466;18.036;2022-08-21T07:24:34;101448.03;;;18.44;85.56
19208;BME280;9737;59.466;18.036;2022-08-21T07:27:03;101428.69;;;18.19;85.52
19208;BME280;9737;59.466;18.036;2022-08-21T07:29:49;101373.69;;;17.93;85.38
19208;BME280;9737;59.466;18.036;2022-08-21T07:32:18;101404.88;;;18.15;85.53
19208;BME280;9737;59.466;18.036;2022-08-21T07:34:49;101421.38;;;18.31;85.33
19208;BME280;9737;59.466;18.036;2022-08-21T07:37:19;101355.09;;;17.90;85.41
19208;BME280;9737;59.466;18.036;2022-08-21T07:39:48;101420.91;;;18.16;85.52
19208;BME280;9737;59.466;18.036;2022-08-21T07:42:40;101502.31;;;18.49;85.64
19208;BME280;9737;59.466;18.036;2022-08-21T07:45:10;101535.69;;;18.57;85.40
19208;BME280;9737;59.466;18.036;2022-08-21T07:47:39;101513.47;;;18.25;85.35
19208;BME280;9737;59.466;18.036;2022-08-21T07:50:10;101633.75;;;18.76;85.30
19208;BME280;9737;59.466;18.036;2022-08-21T07:52:45;101612.59;;;18.71;85.34
19208;BME280;9737;59.466;18.036;2022-08-21T07:55:26;101634.22;;;18.81;85.35
19208;BME280;9737;59.466;18.036;2022-08-21T07:58:13;101606.00;;;18.54;85.18
19208;BME280;9737;59.466;18.036;2022-08-21T08:00:59;101745.38;;;19.04;85.24
19208;BME280;9737;59.466;18.036;2022-08-21T08:03:28;101734.31;;;18.76;85.21
19208;BME280;9737;59.466;18.036;2022-08-21T08:06:27;101787.44;;;18.85;85.22
19208;BME280;9737;59.466;18.036;2022-08-21T08:08:57;101872.13;;;19.34;85.29
19208;BME280;9737;59.466;18.036;2022-08-21T08:12:01;101788.38;;;19.05;85.15
19208;BME280;9737;59.466;18.036;2022-08-21T08:14:30;101821.84;;;19.03;85.03
19208;BME280;9737;59.466;18.036;2022-08-21T08:17:07;101887.75;;;19.10;84.97
19208;BME280;9737;59.466;18.036;2022-08-21T08:19:37;101993.66;;;19.54;84.82
19208;BME280;9737;59.466;18.036;2022-08-21T08:22:12;102075.94;;;19.80;85.01
19208;BME280;9737;59.466;18.036;2022-08-21T08:24:44;102175.84;;;20.01;85.07
19208;BME280;9737;59.466;18.036;2022-08-21T08:27:13;102165.44;;;19.75;84.87
19208;BME280;9737;59.466;18.036;2022-08-21T08:29:47;102328.56;;;20.26;84.80
19208;BME280;9737;59.466;18.036;2022-08-21T08:32:19;102344.66;;;20.27;84.78
19208;BME280;9737;59.466;18.036;2022-08-21T08:34:51;102480.41;;;20.63;84.78
19208;BME280;9737;59.466;18.036;2022-08-21T08:37:20;102573.13;;;20.86;84.74
19208;BME280;9737;59.466;18.036;2022-08-21T08:39:54;102613.44;;;20.78;84.68
19208;BME280;9737;59.466;18.036;2022-08-21T08:42:39;102650.56;;;20.87;84.61
19208;BME280;9737;59.466;18.036;2022-08-21T08:45:13;102720.09;;;21.18;84.52
19208;BME280;9737;59.466;18.036;2022-08-21T08:47:45;102731.78;;;21.08;84.69
19208;BME280;9737;59.466;18.036;2022-08-21T08:50:21;102784.31;;;21.05;84.45
19208;BME280;9737;59.466;18.036;2022-08-21T08:52:54;103007.50;;;21.79;84.37
19208;BME280;9737;59.466;18.036;2022-08-21T08:55:32;103065.03;;;21.72;84.36
19208;BME280;9737;59.466;18.036;2022-08-21T08:58:07;103304.22;;;22.42;84.27
19208;BME280;9737;59.466;18.036;2022-08-21T09:00:42;103424.34;;;22.55;84.22
19208;BME280;9737;59.466;18.036;2022-08-21T09:03:16;103681.56;;;22.98;84.05
19208;BME280;9737;59.466;18.036;2022-08-21T09:05:47;103947.69;;;23.71;83.95
19208;BME280;9737;59.466;18.036;2022-08-21T09:08:41;103894.06;;;23.37;84.15
19208;BME280;9737;59.466;18.036;2022-08-21T09:11:24;103933.38;;;23.44;84.04
19208;BME280;9737;59.466;18.036;2022-08-21T09:14:05;104124.06;;;24.00;83.61
19208;BME280;9737;59.466;18.036;2022-08-21T09:16:56;104196.25;;;24.17;83.75
19208;BME280;9737;59.466;18.036;2022-08-21T09:19:43;104363.72;;;24.46;83.68
19208;BME280;9737;59.466;18.036;2022-08-21T09:22:24;104478.69;;;24.75;83.65
19208;BME280;9737;59.466;18.036;2022-08-21T09:25:05;104373.28;;;24.52;83.64
19208;BME280;9737;59.466;18.036;2022-08-21T09:27:45;104250.34;;;24.34;83.51
19208;BME280;9737;59.466;18.036;2022-08-21T09:31:01;104132.81;;;24.16;83.26
19208;BME280;9737;59.466;18.036;2022-08-21T09:34:26;104210.53;;;24.07;83.41
19208;BME280;9737;59.466;18.036;2022-08-21T09:44:41;103678.44;;;23.15;83.01
19208;BME280;9737;59.466;18.036;2022-08-21T09:54:24;103345.94;;;22.64;82.74
19208;BME280;9737;59.466;18.036;2022-08-21T09:58:30;103370.47;;;22.62;82.31
19208;BME280;9737;59.466;18.036;2022-08-21T10:06:09;103422.38;;;22.80;82.02
19208;BME280;9737;59.466;18.036;2022-08-21T10:09:19;103321.47;;;22.30;82.02
19208;BME280;9737;59.466;18.036;2022-08-21T10:12:17;103411.03;;;22.64;81.90
19208;BME280;9737;59.466;18.036;2022-08-21T10:16:06;103376.59;;;22.53;81.97
19208;BME280;9737;59.466;18.036;2022-08-21T10:19:17;103442.38;;;22.79;81.74
19208;BME280;9737;59.466;18.036;2022-08-21T10:22:23;103370.78;;;22.46;81.39
19208;BME280;9737;59.466;18.036;2022-08-21T10:25:41;103414.81;;;22.85;81.32
19208;BME280;9737;59.466;18.036;2022-08-21T10:29:02;103376.59;;;22.53;81.38
19208;BME280;9737;59.466;18.036;2022-08-21T10:31:51;103348.84;;;22.49;81.00
19208;BME280;9737;59.466;18.036;2022-08-21T10:35:08;103467.75;;;23.02;81.10
19208;BME280;9737;59.466;18.036;2022-08-21T10:42:39;103446.56;;;22.72;80.61
19208;BME280;9737;59.466;18.036;2022-08-21T10:45:38;103574.84;;;23.09;80.49
19208;BME280;9737;59.466;18.036;2022-08-21T10:48:50;103703.78;;;23.27;80.33
19208;BME280;9737;59.466;18.036;2022-08-21T10:51:40;103839.66;;;23.62;80.29
19208;BME280;9737;59.466;18.036;2022-08-21T11:01:41;103800.66;;;23.51;79.79
19208;BME280;9737;59.466;18.036;2022-08-21T11:04:38;103798.47;;;23.79;79.81
19208;BME280;9737;59.466;18.036;2022-08-21T11:07:47;103570.09;;;23.24;79.55
19208;BME280;9737;59.466;18.036;2022-08-21T11:10:42;103560.41;;;23.08;79.28
19208;BME280;9737;59.466;18.036;2022-08-21T11:14:02;103352.34;;;22.63;78.89
19208;BME280;9737;59.466;18.036;2022-08-21T11:17:15;103290.44;;;22.56;79.33
19208;BME280;9737;59.466;18.036;2022-08-21T11:20:22;103362.25;;;22.97;78.74
19208;BME280;9737;59.466;18.036;2022-08-21T11:23:14;103232.59;;;22.45;78.67
19208;BME280;9737;59.466;18.036;2022-08-21T11:26:00;103234.44;;;22.44;78.43
19208;BME280;9737;59.466;18.036;2022-08-21T11:28:38;103221.16;;;22.41;78.71
19208;BME280;9737;59.466;18.036;2022-08-21T11:31:18;103319.19;;;22.93;78.27
19208;BME280;9737;59.466;18.036;2022-08-21T11:34:53;103400.00;;;23.11;78.27
19208;BME280;9737;59.466;18.036;2022-08-21T11:37:44;103477.38;;;23.28;78.20
19208;BME280;9737;59.466;18.036;2022-08-21T11:41:02;103239.25;;;22.52;78.02
19208;BME280;9737;59.466;18.036;2022-08-21T11:43:52;103307.81;;;22.76;77.86
19208;BME280;9737;59.466;18.036;2022-08-21T11:46:51;103394.81;;;22.97;77.53
19208;BME280;9737;59.466;18.036;2022-08-21T11:53:21;103449.38;;;23.28;77.54
19208;BME280;9737;59.466;18.036;2022-08-21T11:57:17;103427.13;;;23.11;77.29
19208;BME280;9737;59.466;18.036;2022-08-21T12:00:29;103330.78;;;23.06;77.06
19208;BME280;9737;59.466;18.036;2022-08-21T12:03:14;103265.53;;;22.74;77.00
19208;BME280;9737;59.466;18.036;2022-08-21T12:06:27;103352.75;;;23.03;76.85
19208;BME280;9737;59.466;18.036;2022-08-21T12:13:23;103353.13;;;22.87;76.56
19208;BME280;9737;59.466;18.036;2022-08-21T12:17:19;103681.56;;;23.57;76.03
19208;BME280;9737;59.466;18.036;2022-08-21T12:23:49;104121.78;;;24.67;75.79
19208;BME280;9737;59.466;18.036;2022-08-21T12:27:45;104150.19;;;24.87;75.74
19208;BME280;9737;59.466;18.036;2022-08-21T12:30:32;104078.59;;;24.74;75.62
19208;BME280;9737;59.466;18.036;2022-08-21T12:33:02;104208.09;;;25.01;75.49
19208;BME280;9737;59.466;18.036;2022-08-21T12:35:35;104413.66;;;25.45;75.27
19208;BME280;9737;59.466;18.036;2022-08-21T12:38:14;104612.44;;;25.85;74.99
19208;BME280;9737;59.466;18.036;2022-08-21T12:40:50;104648.31;;;25.91;75.22
19208;BME280;9737;59.466;18.036;2022-08-21T12:43:28;104610.47;;;25.87;74.92
19208;BME280;9737;59.466;18.036;2022-08-21T12:45:59;104474.41;;;25.58;74.88
19208;BME280;9737;59.466;18.036;2022-08-21T12:48:33;104356.72;;;25.41;74.70
19208;BME280;9737;59.466;18.036;2022-08-21T12:51:09;104305.78;;;25.30;74.49
19208;BME280;9737;59.466;18.036;2022-08-21T12:53:42;104247.88;;;25.15;74.49
19208;BME280;9737;59.466;18.036;2022-08-21T12:56:14;104063.13;;;24.74;74.28
19208;BME280;9737;59.466;18.036;2022-08-21T12:58:51;104104.25;;;24.82;74.05
19208;BME280;9737;59.466;18.036;2022-08-21T13:01:25;104152.97;;;24.98;73.88
19208;BME280;9737;59.466;18.036;2022-08-21T13:04:02;104309.66;;;25.39;73.73
19208;BME280;9737;59.466;18.036;2022-08-21T13:06:37;104247.19;;;25.24;73.70
19208;BME280;9737;59.466;18.036;2022-08-21T13:09:08;104258.72;;;25.28;73.48
19208;BME280;9737;59.466;18.036;2022-08-21T13:11:39;104373.03;;;25.53;73.29
19208;BME280;9737;59.466;18.036;2022-08-21T13:14:23;104318.19;;;25.34;73.18
19208;BME280;9737;59.466;18.036;2022-08-21T13:16:56;104264.91;;;25.30;72.99
19208;BME280;9737;59.466;18.036;2022-08-21T13:19:26;104122.31;;;25.07;72.93
19208;BME280;9737;59.466;18.036;2022-08-21T13:21:56;104043.88;;;24.88;72.67
19208;BME280;9737;59.466;18.036;2022-08-21T13:24:25;104030.41;;;24.87;72.45
19208;BME280;9737;59.466;18.036;2022-08-21T13:27:18;103986.44;;;24.80;72.27
19208;BME280;9737;59.466;18.036;2022-08-21T13:29:47;104084.53;;;25.02;72.26
19208;BME280;9737;59.466;18.036;2022-08-21T13:32:24;104077.34;;;25.01;72.01
19208;BME280;9737;59.466;18.036;2022-08-21T13:34:54;103999.53;;;24.86;72.00
19208;BME280;9737;59.466;18.036;2022-08-21T13:37:23;104012.72;;;24.92;71.87
19208;BME280;9737;59.466;18.036;2022-08-21T13:39:52;104051.00;;;25.02;71.59
19208;BME280;9737;59.466;18.036;2022-08-21T13:42:21;104068.81;;;25.06;71.35
19208;BME280;9737;59.466;18.036;2022-08-21T13:44:52;104152.31;;;25.18;71.31
19208;BME280;9737;59.466;18.036;2022-08-21T13:47:22;104078.84;;;25.06;71.31
19208;BME280;9737;59.466;18.036;2022-08-21T13:49:52;104109.72;;;25.17;71.06
19208;BME280;9737;59.466;18.036;2022-08-21T13:52:26;104318.66;;;25.63;70.91
19208;BME280;9737;59.466;18.036;2022-08-21T13:54:56;104770.16;;;26.42;70.76
19208;BME280;9737;59.466;18.036;2022-08-21T13:57:27;105060.53;;;27.17;70.63
19208;BME280;9737;59.466;18.036;2022-08-21T14:00:16;105132.13;;;27.35;70.18
19208;BME280;9737;59.466;18.036;2022-08-21T14:02:50;105112.03;;;27.23;70.56
19208;BME280;9737;59.466;18.036;2022-08-21T14:05:21;105331.38;;;27.79;69.94
19208;BME280;9737;59.466;18.036;2022-08-21T14:07:50;105875.19;;;28.88;69.88
19208;BME280;9737;59.466;18.036;2022-08-21T14:10:25;106305.56;;;29.75;69.79
19208;BME280;9737;59.466;18.036;2022-08-21T14:13:00;106769.59;;;30.66;69.76
19208;BME280;9737;59.466;18.036;2022-08-21T14:15:32;107090.28;;;31.30;69.70
19208;BME280;9737;59.466;18.036;2022-08-21T14:18:13;107296.63;;;31.63;68.84
19208;BME280;9737;59.466;18.036;2022-08-21T14:20:43;107395.28;;;31.88;69.19
19208;BME280;9737;59.466;18.036;2022-08-21T14:23:11;107195.53;;;31.50;68.72
19208;BME280;9737;59.466;18.036;2022-08-21T14:25:50;107141.13;;;31.39;68.90
19208;BME280;9737;59.466;18.036;2022-08-21T14:28:23;107505.69;;;32.17;68.25
19208;BME280;9737;59.466;18.036;2022-08-21T14:30:54;107579.19;;;32.33;68.37